sensor_id;sensor_type;location;lat;lon;timestamp;P1;durP1;ratioP1;P2;durP2;ratioP2
75059;SDS011;63640;59.264;18.116;2023-11-21T00:01:22;8.07;;;3.67;;
75059;SDS011;63640;59.264;18.116;2023-11-21T00:03:47;9.80;;;4.35;;
75059;SDS011;63640;59.264;18.116;2023-11-21T00:06:12;9.95;;;4.93;;
75059;SDS011;63640;59.264;18.116;2023-11-21T00:08:38;8.93;;;4.18;;
75059;SDS011;63640;59.264;18.116;2023-11-21T00:11:05;8.55;;;3.72;;
75059;SDS011;63640;59.264;18.116;2023-11-21T00:13:31;9.05;;;4.10;;
75059;SDS011;63640;59.264;18.116;2023-11-21T00:15:56;9.13;;;4.20;;
75059;SDS011;63640;59.264;18.116;2023-11-21T00:18:21;9.15;;;4.07;;
75059;SDS011;63640;59.264;18.116;2023-11-21T00:20:47;8.73;;;3.60;;
75059;SDS011;63640;59.264;18.116;2023-11-21T00:23:12;9.07;;;3.40;;
75059;SDS011;63640;59.264;18.116;2023-11-21T00:25:37;8.23;;;3.65;;
75059;SDS011;63640;59.264;18.116;2023-11-21T00:28:03;8.32;;;4.20;;
75059;SDS011;63640;59.264;18.116;2023-11-21T00:30:28;9.05;;;4.70;;
75059;SDS011;63640;59.264;18.116;2023-11-21T00:32:54;9.65;;;4.00;;
75059;SDS011;63640;59.264;18.116;2023-11-21T00:35:20;9.18;;;3.90;;
75059;SDS011;63640;59.264;18.116;2023-11-21T00:37:45;8.10;;;3.53;;
75059;SDS011;63640;59.264;18.116;2023-11-21T00:40:10;8.20;;;3.45;;
75059;SDS011;63640;59.264;18.116;2023-11-21T00:42:36;7.10;;;3.47;;
75059;SDS011;63640;59.264;18.116;2023-11-21T00:45:01;8.60;;;3.88;;
75059;SDS011;63640;59.264;18.116;2023-11-21T00:47:27;9.50;;;3.53;;
75059;SDS011;63640;59.264;18.116;2023-11-21T00:49:52;10.55;;;4.40;;
75059;SDS011;63640;59.264;18.116;2023-11-21T00:52:18;9.98;;;4.00;;
75059;SDS011;63640;59.264;18.116;2023-11-21T00:54:43;7.35;;;3.30;;
75059;SDS011;63640;59.264;18.116;2023-11-21T00:57:08;8.50;;;3.42;;
75059;SDS011;63640;59.264;18.116;2023-11-21T00:59:34;10.38;;;4.25;;
75059;SDS011;63640;59.264;18.116;2023-11-21T01:02:00;8.23;;;3.83;;
75059;SDS011;63640;59.264;18.116;2023-11-21T01:04:26;8.07;;;4.15;;
75059;SDS011;63640;59.264;18.116;2023-11-21T01:06:52;7.18;;;2.85;;
75059;SDS011;63640;59.264;18.116;2023-11-21T01:09:17;8.95;;;3.78;;
75059;SDS011;63640;59.264;18.116;2023-11-21T01:11:43;8.13;;;3.63;;
75059;SDS011;63640;59.264;18.116;2023-11-21T01:14:08;6.80;;;2.83;;
75059;SDS011;63640;59.264;18.116;2023-11-21T01:16:35;9.38;;;3.90;;
75059;SDS011;63640;59.264;18.116;2023-11-21T01:19:00;8.70;;;3.42;;
75059;SDS011;63640;59.264;18.116;2023-11-21T01:21:26;7.50;;;3.70;;
75059;SDS011;63640;59.264;18.116;2023-11-21T01:23:53;7.07;;;3.28;;
75059;SDS011;63640;59.264;18.116;2023-11-21T01:26:18;8.43;;;3.55;;
75059;SDS011;63640;59.264;18.116;2023-11-21T01:28:43;7.25;;;3.50;;
75059;SDS011;63640;59.264;18.116;2023-11-21T01:31:09;6.35;;;2.92;;
75059;SDS011;63640;59.264;18.116;2023-11-21T01:33:34;7.68;;;3.42;;
75059;SDS011;63640;59.264;18.116;2023-11-21T01:35:59;7.18;;;3.42;;
75059;SDS011;63640;59.264;18.116;2023-11-21T01:38:25;7.07;;;3.35;;
75059;SDS011;63640;59.264;18.116;2023-11-21T01:40:50;8.48;;;4.38;;
75059;SDS011;63640;59.264;18.116;2023-11-21T01:43:15;7.80;;;3.63;;
75059;SDS011;63640;59.264;18.116;2023-11-21T01:45:41;9.00;;;3.80;;
75059;SDS011;63640;59.264;18.116;2023-11-21T01:48:07;8.63;;;3.40;;
75059;SDS011;63640;59.264;18.116;2023-11-21T01:50:32;7.38;;;3.63;;
75059;SDS011;63640;59.264;18.116;2023-11-21T01:52:58;8.65;;;3.75;;
75059;SDS011;63640;59.264;18.116;2023-11-21T01:55:25;8.07;;;3.75;;
75059;SDS011;63640;59.264;18.116;2023-11-21T01:57:52;8.15;;;3.55;;
75059;SDS011;63640;59.264;18.116;2023-11-21T02:00:17;7.07;;;3.40;;
75059;SDS011;63640;59.264;18.116;2023-11-21T02:02:45;7.70;;;3.65;;
75059;SDS011;63640;59.264;18.116;2023-11-21T02:05:10;7.63;;;3.72;;
75059;SDS011;63640;59.264;18.116;2023-11-21T02:07:38;6.38;;;3.05;;
75059;SDS011;63640;59.264;18.116;2023-11-21T02:10:03;8.00;;;3.75;;
75059;SDS011;63640;59.264;18.116;2023-11-21T02:12:29;8.05;;;3.72;;
75059;SDS011;63640;59.264;18.116;2023-11-21T02:14:55;8.02;;;3.63;;
75059;SDS011;63640;59.264;18.116;2023-11-21T02:17:20;7.72;;;3.70;;
75059;SDS011;63640;59.264;18.116;2023-11-21T02:19:46;8.98;;;4.18;;
75059;SDS011;63640;59.264;18.116;2023-11-21T02:22:12;9.40;;;4.50;;
75059;SDS011;63640;59.264;18.116;2023-11-21T02:24:40;7.15;;;3.20;;
75059;SDS011;63640;59.264;18.116;2023-11-21T02:27:07;8.50;;;3.95;;
75059;SDS011;63640;59.264;18.116;2023-11-21T02:29:32;8.73;;;4.32;;
75059;SDS011;63640;59.264;18.116;2023-11-21T02:31:58;8.43;;;3.30;;
75059;SDS011;63640;59.264;18.116;2023-11-21T02:34:24;9.55;;;4.25;;
75059;SDS011;63640;59.264;18.116;2023-11-21T02:36:50;7.32;;;3.70;;
75059;SDS011;63640;59.264;18.116;2023-11-21T02:39:16;8.65;;;4.10;;
75059;SDS011;63640;59.264;18.116;2023-11-21T02:41:42;8.82;;;3.40;;
75059;SDS011;63640;59.264;18.116;2023-11-21T02:44:07;6.70;;;3.28;;
75059;SDS011;63640;59.264;18.116;2023-11-21T02:46:33;8.32;;;3.58;;
75059;SDS011;63640;59.264;18.116;2023-11-21T02:49:02;8.30;;;3.95;;
75059;SDS011;63640;59.264;18.116;2023-11-21T02:51:27;7.78;;;3.83;;
75059;SDS011;63640;59.264;18.116;2023-11-21T02:53:53;7.47;;;3.40;;
75059;SDS011;63640;59.264;18.116;2023-11-21T02:56:18;9.68;;;4.13;;
75059;SDS011;63640;59.264;18.116;2023-11-21T02:58:44;9.38;;;4.13;;
75059;SDS011;63640;59.264;18.116;2023-11-21T03:01:09;9.50;;;4.07;;
75059;SDS011;63640;59.264;18.116;2023-11-21T03:03:36;8.05;;;3.67;;
75059;SDS011;63640;59.264;18.116;2023-11-21T03:06:05;9.82;;;3.92;;
75059;SDS011;63640;59.264;18.116;2023-11-21T03:08:30;7.57;;;3.53;;
75059;SDS011;63640;59.264;18.116;2023-11-21T03:10:56;6.85;;;3.55;;
75059;SDS011;63640;59.264;18.116;2023-11-21T03:13:21;8.65;;;3.85;;
75059;SDS011;63640;59.264;18.116;2023-11-21T03:15:46;8.25;;;4.10;;
75059;SDS011;63640;59.264;18.116;2023-11-21T03:18:12;9.55;;;4.50;;
75059;SDS011;63640;59.264;18.116;2023-11-21T03:20:38;7.63;;;3.97;;
75059;SDS011;63640;59.264;18.116;2023-11-21T03:23:03;8.70;;;3.90;;
75059;SDS011;63640;59.264;18.116;2023-11-21T03:25:30;7.25;;;3.33;;
75059;SDS011;63640;59.264;18.116;2023-11-21T03:27:56;8.35;;;4.28;;
75059;SDS011;63640;59.264;18.116;2023-11-21T03:30:21;6.63;;;3.38;;
75059;SDS011;63640;59.264;18.116;2023-11-21T03:32:46;7.95;;;3.92;;
75059;SDS011;63640;59.264;18.116;2023-11-21T03:35:12;8.00;;;3.58;;
75059;SDS011;63640;59.264;18.116;2023-11-21T03:37:37;8.07;;;4.03;;
75059;SDS011;63640;59.264;18.116;2023-11-21T03:40:06;8.18;;;4.10;;
75059;SDS011;63640;59.264;18.116;2023-11-21T03:42:33;9.18;;;4.20;;
75059;SDS011;63640;59.264;18.116;2023-11-21T03:44:58;8.00;;;3.30;;
75059;SDS011;63640;59.264;18.116;2023-11-21T03:47:23;10.05;;;4.07;;
75059;SDS011;63640;59.264;18.116;2023-11-21T03:49:49;9.23;;;4.25;;
75059;SDS011;63640;59.264;18.116;2023-11-21T03:52:14;7.80;;;4.05;;
75059;SDS011;63640;59.264;18.116;2023-11-21T03:54:40;8.88;;;4.35;;
75059;SDS011;63640;59.264;18.116;2023-11-21T03:57:05;7.82;;;3.75;;
75059;SDS011;63640;59.264;18.116;2023-11-21T03:59:30;7.38;;;3.50;;
75059;SDS011;63640;59.264;18.116;2023-11-21T04:01:56;7.78;;;3.83;;
75059;SDS011;63640;59.264;18.116;2023-11-21T04:04:22;7.38;;;3.55;;
75059;SDS011;63640;59.264;18.116;2023-11-21T04:06:47;8.00;;;3.83;;
75059;SDS011;63640;59.264;18.116;2023-11-21T04:09:12;7.82;;;3.70;;
75059;SDS011;63640;59.264;18.116;2023-11-21T04:11:38;9.40;;;3.97;;
75059;SDS011;63640;59.264;18.116;2023-11-21T04:14:03;8.25;;;4.07;;
75059;SDS011;63640;59.264;18.116;2023-11-21T04:16:28;8.93;;;4.80;;
75059;SDS011;63640;59.264;18.116;2023-11-21T04:18:53;8.60;;;4.43;;
75059;SDS011;63640;59.264;18.116;2023-11-21T04:21:19;8.10;;;3.97;;
75059;SDS011;63640;59.264;18.116;2023-11-21T04:23:44;7.70;;;3.90;;
75059;SDS011;63640;59.264;18.116;2023-11-21T04:26:09;9.35;;;4.30;;
75059;SDS011;63640;59.264;18.116;2023-11-21T04:28:35;8.00;;;4.05;;
75059;SDS011;63640;59.264;18.116;2023-11-21T04:31:00;9.77;;;4.82;;
75059;SDS011;63640;59.264;18.116;2023-11-21T04:33:25;9.80;;;4.55;;
75059;SDS011;63640;59.264;18.116;2023-11-21T04:35:51;9.43;;;3.90;;
75059;SDS011;63640;59.264;18.116;2023-11-21T04:38:16;9.90;;;4.88;;
75059;SDS011;63640;59.264;18.116;2023-11-21T04:40:41;9.85;;;4.60;;
75059;SDS011;63640;59.264;18.116;2023-11-21T04:43:07;10.40;;;4.80;;
75059;SDS011;63640;59.264;18.116;2023-11-21T04:45:32;10.15;;;4.60;;
75059;SDS011;63640;59.264;18.116;2023-11-21T04:47:57;8.95;;;4.30;;
75059;SDS011;63640;59.264;18.116;2023-11-21T04:50:23;9.40;;;4.35;;
75059;SDS011;63640;59.264;18.116;2023-11-21T04:52:48;10.02;;;4.43;;
75059;SDS011;63640;59.264;18.116;2023-11-21T04:55:13;10.20;;;4.75;;
75059;SDS011;63640;59.264;18.116;2023-11-21T04:57:40;9.15;;;4.22;;
75059;SDS011;63640;59.264;18.116;2023-11-21T05:00:07;10.18;;;4.85;;
75059;SDS011;63640;59.264;18.116;2023-11-21T05:02:32;10.00;;;4.93;;
75059;SDS011;63640;59.264;18.116;2023-11-21T05:04:59;10.52;;;4.93;;
75059;SDS011;63640;59.264;18.116;2023-11-21T05:07:24;9.77;;;4.70;;
75059;SDS011;63640;59.264;18.116;2023-11-21T05:09:53;9.77;;;5.00;;
75059;SDS011;63640;59.264;18.116;2023-11-21T05:12:19;11.15;;;5.07;;
75059;SDS011;63640;59.264;18.116;2023-11-21T05:14:44;9.88;;;4.78;;
75059;SDS011;63640;59.264;18.116;2023-11-21T05:17:09;9.30;;;4.55;;
75059;SDS011;63640;59.264;18.116;2023-11-21T05:19:35;8.75;;;4.07;;
75059;SDS011;63640;59.264;18.116;2023-11-21T05:22:00;9.52;;;4.28;;
75059;SDS011;63640;59.264;18.116;2023-11-21T05:24:26;9.70;;;4.07;;
75059;SDS011;63640;59.264;18.116;2023-11-21T05:26:51;7.75;;;3.50;;
75059;SDS011;63640;59.264;18.116;2023-11-21T05:29:16;8.00;;;3.85;;
75059;SDS011;63640;59.264;18.116;2023-11-21T05:31:42;9.15;;;4.18;;
75059;SDS011;63640;59.264;18.116;2023-11-21T05:34:07;8.45;;;4.10;;
75059;SDS011;63640;59.264;18.116;2023-11-21T05:36:32;10.00;;;4.30;;
75059;SDS011;63640;59.264;18.116;2023-11-21T05:38:58;8.00;;;3.88;;
75059;SDS011;63640;59.264;18.116;2023-11-21T05:41:24;7.78;;;3.78;;
75059;SDS011;63640;59.264;18.116;2023-11-21T05:43:50;8.10;;;3.88;;
75059;SDS011;63640;59.264;18.116;2023-11-21T05:46:16;9.75;;;4.13;;
75059;SDS011;63640;59.264;18.116;2023-11-21T05:48:41;9.77;;;3.90;;
75059;SDS011;63640;59.264;18.116;2023-11-21T05:51:07;8.50;;;3.78;;
75059;SDS011;63640;59.264;18.116;2023-11-21T05:53:33;10.05;;;4.68;;
75059;SDS011;63640;59.264;18.116;2023-11-21T05:55:58;8.38;;;3.65;;
75059;SDS011;63640;59.264;18.116;2023-11-21T05:58:24;8.80;;;4.13;;
75059;SDS011;63640;59.264;18.116;2023-11-21T06:00:49;9.05;;;4.70;;
75059;SDS011;63640;59.264;18.116;2023-11-21T06:03:14;10.35;;;4.75;;
75059;SDS011;63640;59.264;18.116;2023-11-21T06:05:40;9.68;;;4.30;;
75059;SDS011;63640;59.264;18.116;2023-11-21T06:08:05;10.38;;;4.32;;
75059;SDS011;63640;59.264;18.116;2023-11-21T06:10:32;8.60;;;4.57;;
75059;SDS011;63640;59.264;18.116;2023-11-21T06:12:57;10.15;;;5.10;;
75059;SDS011;63640;59.264;18.116;2023-11-21T06:15:23;8.85;;;4.60;;
75059;SDS011;63640;59.264;18.116;2023-11-21T06:17:49;10.15;;;5.05;;
75059;SDS011;63640;59.264;18.116;2023-11-21T06:20:17;8.98;;;4.22;;
75059;SDS011;63640;59.264;18.116;2023-11-21T06:22:43;10.02;;;5.45;;
75059;SDS011;63640;59.264;18.116;2023-11-21T06:25:09;8.00;;;4.40;;
75059;SDS011;63640;59.264;18.116;2023-11-21T06:27:37;8.70;;;4.65;;
75059;SDS011;63640;59.264;18.116;2023-11-21T06:30:02;8.80;;;4.15;;
75059;SDS011;63640;59.264;18.116;2023-11-21T06:32:28;9.48;;;4.28;;
75059;SDS011;63640;59.264;18.116;2023-11-21T06:34:55;9.07;;;4.78;;
75059;SDS011;63640;59.264;18.116;2023-11-21T06:37:20;8.25;;;4.30;;
75059;SDS011;63640;59.264;18.116;2023-11-21T06:39:48;7.53;;;3.90;;
75059;SDS011;63640;59.264;18.116;2023-11-21T06:42:14;7.72;;;4.20;;
75059;SDS011;63640;59.264;18.116;2023-11-21T06:44:40;9.48;;;4.78;;
75059;SDS011;63640;59.264;18.116;2023-11-21T06:47:06;7.65;;;3.80;;
75059;SDS011;63640;59.264;18.116;2023-11-21T06:49:32;46.30;;;6.72;;
75059;SDS011;63640;59.264;18.116;2023-11-21T06:51:57;9.48;;;4.45;;
75059;SDS011;63640;59.264;18.116;2023-11-21T06:54:23;7.90;;;4.28;;
75059;SDS011;63640;59.264;18.116;2023-11-21T06:56:49;8.63;;;4.13;;
75059;SDS011;63640;59.264;18.116;2023-11-21T06:59:15;7.78;;;4.18;;
75059;SDS011;63640;59.264;18.116;2023-11-21T07:01:40;7.70;;;4.03;;
75059;SDS011;63640;59.264;18.116;2023-11-21T07:04:06;7.53;;;3.58;;
75059;SDS011;63640;59.264;18.116;2023-11-21T07:06:32;8.10;;;4.10;;
75059;SDS011;63640;59.264;18.116;2023-11-21T07:08:57;8.43;;;4.05;;
75059;SDS011;63640;59.264;18.116;2023-11-21T07:11:23;7.72;;;3.70;;
75059;SDS011;63640;59.264;18.116;2023-11-21T07:13:49;9.68;;;4.20;;
75059;SDS011;63640;59.264;18.116;2023-11-21T07:16:14;9.70;;;4.22;;
75059;SDS011;63640;59.264;18.116;2023-11-21T07:18:40;8.00;;;4.43;;
75059;SDS011;63640;59.264;18.116;2023-11-21T07:21:06;7.95;;;3.90;;
75059;SDS011;63640;59.264;18.116;2023-11-21T07:23:32;7.88;;;3.90;;
75059;SDS011;63640;59.264;18.116;2023-11-21T07:25:57;6.90;;;3.20;;
75059;SDS011;63640;59.264;18.116;2023-11-21T07:28:23;7.63;;;4.13;;
75059;SDS011;63640;59.264;18.116;2023-11-21T07:30:49;8.93;;;3.95;;
75059;SDS011;63640;59.264;18.116;2023-11-21T07:33:14;9.05;;;4.53;;
75059;SDS011;63640;59.264;18.116;2023-11-21T07:35:39;7.30;;;3.63;;
75059;SDS011;63640;59.264;18.116;2023-11-21T07:38:05;7.95;;;3.90;;
75059;SDS011;63640;59.264;18.116;2023-11-21T07:40:30;8.32;;;3.80;;
75059;SDS011;63640;59.264;18.116;2023-11-21T07:42:55;7.78;;;4.20;;
75059;SDS011;63640;59.264;18.116;2023-11-21T07:45:22;7.88;;;3.92;;
75059;SDS011;63640;59.264;18.116;2023-11-21T07:47:47;10.75;;;3.95;;
75059;SDS011;63640;59.264;18.116;2023-11-21T07:50:13;8.32;;;3.72;;
75059;SDS011;63640;59.264;18.116;2023-11-21T07:52:38;8.38;;;3.63;;
75059;SDS011;63640;59.264;18.116;2023-11-21T07:55:04;6.28;;;3.20;;
75059;SDS011;63640;59.264;18.116;2023-11-21T07:57:30;8.85;;;3.72;;
75059;SDS011;63640;59.264;18.116;2023-11-21T07:59:55;8.60;;;4.32;;
75059;SDS011;63640;59.264;18.116;2023-11-21T08:02:21;6.88;;;3.30;;
75059;SDS011;63640;59.264;18.116;2023-11-21T08:04:46;6.95;;;3.25;;
75059;SDS011;63640;59.264;18.116;2023-11-21T08:07:14;7.47;;;3.85;;
75059;SDS011;63640;59.264;18.116;2023-11-21T08:09:40;6.68;;;3.60;;
75059;SDS011;63640;59.264;18.116;2023-11-21T08:12:05;7.40;;;3.40;;
75059;SDS011;63640;59.264;18.116;2023-11-21T08:14:30;6.75;;;3.15;;
75059;SDS011;63640;59.264;18.116;2023-11-21T08:16:56;6.35;;;3.50;;
75059;SDS011;63640;59.264;18.116;2023-11-21T08:19:23;6.72;;;3.35;;
75059;SDS011;63640;59.264;18.116;2023-11-21T08:21:50;7.05;;;3.05;;
75059;SDS011;63640;59.264;18.116;2023-11-21T08:24:15;6.43;;;3.10;;
75059;SDS011;63640;59.264;18.116;2023-11-21T08:26:41;7.00;;;3.33;;
75059;SDS011;63640;59.264;18.116;2023-11-21T08:29:06;7.47;;;3.72;;
75059;SDS011;63640;59.264;18.116;2023-11-21T08:31:34;7.57;;;3.00;;
75059;SDS011;63640;59.264;18.116;2023-11-21T08:34:00;6.38;;;2.72;;
75059;SDS011;63640;59.264;18.116;2023-11-21T08:36:27;9.43;;;3.45;;
75059;SDS011;63640;59.264;18.116;2023-11-21T08:38:52;7.32;;;3.30;;
75059;SDS011;63640;59.264;18.116;2023-11-21T08:41:17;5.63;;;2.65;;
75059;SDS011;63640;59.264;18.116;2023-11-21T08:43:47;6.90;;;2.72;;
75059;SDS011;63640;59.264;18.116;2023-11-21T08:46:13;5.85;;;3.10;;
75059;SDS011;63640;59.264;18.116;2023-11-21T08:48:40;6.90;;;3.10;;
75059;SDS011;63640;59.264;18.116;2023-11-21T08:51:06;5.95;;;3.08;;
75059;SDS011;63640;59.264;18.116;2023-11-21T08:53:31;5.85;;;2.95;;
75059;SDS011;63640;59.264;18.116;2023-11-21T08:55:57;5.50;;;2.60;;
75059;SDS011;63640;59.264;18.116;2023-11-21T08:58:23;5.57;;;2.70;;
75059;SDS011;63640;59.264;18.116;2023-11-21T09:00:48;6.05;;;2.60;;
75059;SDS011;63640;59.264;18.116;2023-11-21T09:03:14;6.07;;;3.10;;
75059;SDS011;63640;59.264;18.116;2023-11-21T09:05:39;5.93;;;2.75;;
75059;SDS011;63640;59.264;18.116;2023-11-21T09:08:05;6.53;;;2.42;;
75059;SDS011;63640;59.264;18.116;2023-11-21T09:10:32;7.50;;;2.20;;
75059;SDS011;63640;59.264;18.116;2023-11-21T09:12:57;5.47;;;2.45;;
75059;SDS011;63640;59.264;18.116;2023-11-21T09:15:24;6.45;;;2.28;;
75059;SDS011;63640;59.264;18.116;2023-11-21T09:17:50;7.55;;;2.28;;
75059;SDS011;63640;59.264;18.116;2023-11-21T09:20:15;6.03;;;3.00;;
75059;SDS011;63640;59.264;18.116;2023-11-21T09:22:41;4.68;;;2.05;;
75059;SDS011;63640;59.264;18.116;2023-11-21T09:25:06;6.63;;;2.22;;
75059;SDS011;63640;59.264;18.116;2023-11-21T09:27:33;5.65;;;2.30;;
75059;SDS011;63640;59.264;18.116;2023-11-21T09:29:59;5.78;;;2.65;;
75059;SDS011;63640;59.264;18.116;2023-11-21T09:32:24;5.32;;;2.50;;
75059;SDS011;63640;59.264;18.116;2023-11-21T09:34:49;5.25;;;2.30;;
75059;SDS011;63640;59.264;18.116;2023-11-21T09:37:15;5.28;;;2.08;;
75059;SDS011;63640;59.264;18.116;2023-11-21T09:39:41;4.60;;;1.77;;
75059;SDS011;63640;59.264;18.116;2023-11-21T09:47:23;4.05;;;1.63;;
75059;SDS011;63640;59.264;18.116;2023-11-21T09:49:49;4.20;;;1.60;;
75059;SDS011;63640;59.264;18.116;2023-11-21T09:52:27;4.22;;;1.60;;
75059;SDS011;63640;59.264;18.116;2023-11-21T09:54:53;6.05;;;1.88;;
75059;SDS011;63640;59.264;18.116;2023-11-21T09:57:21;4.63;;;1.80;;
75059;SDS011;63640;59.264;18.116;2023-11-21T09:59:48;4.07;;;1.75;;
75059;SDS011;63640;59.264;18.116;2023-11-21T10:02:16;6.63;;;2.08;;
75059;SDS011;63640;59.264;18.116;2023-11-21T10:04:43;5.43;;;1.83;;
75059;SDS011;63640;59.264;18.116;2023-11-21T10:07:09;3.90;;;1.50;;
75059;SDS011;63640;59.264;18.116;2023-11-21T10:09:36;4.47;;;1.73;;
75059;SDS011;63640;59.264;18.116;2023-11-21T10:12:03;5.43;;;2.15;;
75059;SDS011;63640;59.264;18.116;2023-11-21T10:14:31;5.85;;;2.00;;
75059;SDS011;63640;59.264;18.116;2023-11-21T10:16:56;4.47;;;1.65;;
75059;SDS011;63640;59.264;18.116;2023-11-21T10:19:22;7.18;;;2.72;;
75059;SDS011;63640;59.264;18.116;2023-11-21T10:21:48;6.32;;;2.28;;
75059;SDS011;63640;59.264;18.116;2023-11-21T10:24:14;5.40;;;1.88;;
75059;SDS011;63640;59.264;18.116;2023-11-21T10:26:40;5.60;;;2.15;;
75059;SDS011;63640;59.264;18.116;2023-11-21T10:29:06;5.70;;;2.60;;
75059;SDS011;63640;59.264;18.116;2023-11-21T10:31:32;4.93;;;2.20;;
75059;SDS011;63640;59.264;18.116;2023-11-21T10:34:13;5.78;;;2.70;;
75059;SDS011;63640;59.264;18.116;2023-11-21T10:36:39;6.85;;;2.55;;
75059;SDS011;63640;59.264;18.116;2023-11-21T10:39:05;6.70;;;2.28;;
75059;SDS011;63640;59.264;18.116;2023-11-21T10:41:30;5.60;;;2.33;;
75059;SDS011;63640;59.264;18.116;2023-11-21T10:43:55;7.32;;;2.40;;
75059;SDS011;63640;59.264;18.116;2023-11-21T10:46:21;7.32;;;2.53;;
75059;SDS011;63640;59.264;18.116;2023-11-21T10:48:52;6.53;;;2.50;;
75059;SDS011;63640;59.264;18.116;2023-11-21T10:51:17;4.90;;;2.15;;
75059;SDS011;63640;59.264;18.116;2023-11-21T10:53:44;7.80;;;2.67;;
75059;SDS011;63640;59.264;18.116;2023-11-21T10:56:10;6.93;;;2.78;;
75059;SDS011;63640;59.264;18.116;2023-11-21T10:58:42;6.60;;;3.10;;
75059;SDS011;63640;59.264;18.116;2023-11-21T11:01:08;8.43;;;2.75;;
75059;SDS011;63640;59.264;18.116;2023-11-21T11:03:36;6.15;;;2.63;;
75059;SDS011;63640;59.264;18.116;2023-11-21T11:06:03;6.43;;;3.10;;
75059;SDS011;63640;59.264;18.116;2023-11-21T11:08:29;6.90;;;3.28;;
75059;SDS011;63640;59.264;18.116;2023-11-21T11:10:55;8.25;;;3.33;;
75059;SDS011;63640;59.264;18.116;2023-11-21T11:13:21;7.10;;;3.22;;
75059;SDS011;63640;59.264;18.116;2023-11-21T11:15:50;9.15;;;3.45;;
75059;SDS011;63640;59.264;18.116;2023-11-21T11:18:15;9.00;;;3.97;;
75059;SDS011;63640;59.264;18.116;2023-11-21T11:20:42;9.55;;;3.70;;
75059;SDS011;63640;59.264;18.116;2023-11-21T11:28:07;6.38;;;3.03;;
75059;SDS011;63640;59.264;18.116;2023-11-21T11:36:03;8.20;;;4.35;;
75059;SDS011;63640;59.264;18.116;2023-11-21T11:38:31;7.40;;;3.70;;
75059;SDS011;63640;59.264;18.116;2023-11-21T11:40:57;7.18;;;3.92;;
75059;SDS011;63640;59.264;18.116;2023-11-21T11:43:26;6.97;;;3.17;;
75059;SDS011;63640;59.264;18.116;2023-11-21T11:45:52;8.27;;;3.75;;
75059;SDS011;63640;59.264;18.116;2023-11-21T11:48:21;7.25;;;3.40;;
75059;SDS011;63640;59.264;18.116;2023-11-21T11:53:51;8.90;;;3.03;;
75059;SDS011;63640;59.264;18.116;2023-11-21T11:58:45;6.55;;;2.70;;
75059;SDS011;63640;59.264;18.116;2023-11-21T12:01:11;5.88;;;2.63;;
75059;SDS011;63640;59.264;18.116;2023-11-21T12:03:37;6.72;;;2.72;;
75059;SDS011;63640;59.264;18.116;2023-11-21T12:06:02;6.30;;;2.30;;
75059;SDS011;63640;59.264;18.116;2023-11-21T12:08:28;4.85;;;2.10;;
75059;SDS011;63640;59.264;18.116;2023-11-21T12:10:56;4.13;;;1.52;;
75059;SDS011;63640;59.264;18.116;2023-11-21T12:13:22;3.42;;;1.60;;
75059;SDS011;63640;59.264;18.116;2023-11-21T12:15:48;3.67;;;1.48;;
75059;SDS011;63640;59.264;18.116;2023-11-21T12:18:13;5.05;;;1.88;;
75059;SDS011;63640;59.264;18.116;2023-11-21T12:20:39;4.30;;;1.60;;
75059;SDS011;63640;59.264;18.116;2023-11-21T12:23:06;4.63;;;1.58;;
75059;SDS011;63640;59.264;18.116;2023-11-21T12:25:31;5.35;;;1.80;;
75059;SDS011;63640;59.264;18.116;2023-11-21T12:27:58;4.57;;;1.83;;
75059;SDS011;63640;59.264;18.116;2023-11-21T12:30:25;3.80;;;1.50;;
75059;SDS011;63640;59.264;18.116;2023-11-21T12:32:54;6.10;;;1.85;;
75059;SDS011;63640;59.264;18.116;2023-11-21T12:35:21;4.38;;;1.27;;
75059;SDS011;63640;59.264;18.116;2023-11-21T12:37:47;4.20;;;1.30;;
75059;SDS011;63640;59.264;18.116;2023-11-21T12:40:13;4.15;;;1.50;;
75059;SDS011;63640;59.264;18.116;2023-11-21T12:42:42;3.80;;;1.35;;
75059;SDS011;63640;59.264;18.116;2023-11-21T12:47:43;4.30;;;1.40;;
75059;SDS011;63640;59.264;18.116;2023-11-21T12:50:09;5.45;;;1.40;;
75059;SDS011;63640;59.264;18.116;2023-11-21T12:52:42;3.38;;;1.20;;
75059;SDS011;63640;59.264;18.116;2023-11-21T12:55:16;3.45;;;1.30;;
75059;SDS011;63640;59.264;18.116;2023-11-21T12:57:42;4.13;;;1.60;;
75059;SDS011;63640;59.264;18.116;2023-11-21T13:00:08;4.18;;;1.55;;
75059;SDS011;63640;59.264;18.116;2023-11-21T13:02:38;3.90;;;1.58;;
75059;SDS011;63640;59.264;18.116;2023-11-21T13:05:07;5.10;;;1.98;;
75059;SDS011;63640;59.264;18.116;2023-11-21T13:07:41;5.80;;;2.65;;
75059;SDS011;63640;59.264;18.116;2023-11-21T13:10:12;5.07;;;1.73;;
75059;SDS011;63640;59.264;18.116;2023-11-21T13:12:37;4.95;;;1.65;;
75059;SDS011;63640;59.264;18.116;2023-11-21T13:15:07;4.38;;;1.63;;
75059;SDS011;63640;59.264;18.116;2023-11-21T13:17:33;4.13;;;1.65;;
75059;SDS011;63640;59.264;18.116;2023-11-21T13:19:59;3.92;;;1.60;;
75059;SDS011;63640;59.264;18.116;2023-11-21T13:22:24;4.45;;;1.92;;
75059;SDS011;63640;59.264;18.116;2023-11-21T13:24:50;4.28;;;1.50;;
75059;SDS011;63640;59.264;18.116;2023-11-21T13:27:15;5.15;;;1.80;;
75059;SDS011;63640;59.264;18.116;2023-11-21T13:29:40;6.80;;;2.10;;
75059;SDS011;63640;59.264;18.116;2023-11-21T13:32:06;4.75;;;1.40;;
75059;SDS011;63640;59.264;18.116;2023-11-21T13:34:34;5.50;;;1.80;;
75059;SDS011;63640;59.264;18.116;2023-11-21T13:37:01;5.18;;;1.40;;
75059;SDS011;63640;59.264;18.116;2023-11-21T13:39:28;4.70;;;1.92;;
75059;SDS011;63640;59.264;18.116;2023-11-21T13:41:57;4.70;;;1.50;;
75059;SDS011;63640;59.264;18.116;2023-11-21T13:44:23;3.58;;;1.52;;
75059;SDS011;63640;59.264;18.116;2023-11-21T13:46:54;4.47;;;1.65;;
75059;SDS011;63640;59.264;18.116;2023-11-21T13:49:21;4.90;;;1.73;;
75059;SDS011;63640;59.264;18.116;2023-11-21T13:51:48;5.10;;;1.50;;
75059;SDS011;63640;59.264;18.116;2023-11-21T13:54:17;3.60;;;1.40;;
75059;SDS011;63640;59.264;18.116;2023-11-21T13:56:42;4.47;;;1.75;;
75059;SDS011;63640;59.264;18.116;2023-11-21T13:59:09;4.22;;;1.52;;
75059;SDS011;63640;59.264;18.116;2023-11-21T14:01:45;3.80;;;1.52;;
75059;SDS011;63640;59.264;18.116;2023-11-21T14:04:21;4.50;;;1.92;;
75059;SDS011;63640;59.264;18.116;2023-11-21T14:07:00;4.00;;;1.42;;
75059;SDS011;63640;59.264;18.116;2023-11-21T14:09:39;4.30;;;1.52;;
75059;SDS011;63640;59.264;18.116;2023-11-21T14:12:08;4.72;;;1.73;;
75059;SDS011;63640;59.264;18.116;2023-11-21T14:14:35;4.88;;;1.88;;
75059;SDS011;63640;59.264;18.116;2023-11-21T14:17:00;3.55;;;1.42;;
75059;SDS011;63640;59.264;18.116;2023-11-21T14:19:29;3.97;;;1.60;;
75059;SDS011;63640;59.264;18.116;2023-11-21T14:21:57;3.63;;;1.48;;
75059;SDS011;63640;59.264;18.116;2023-11-21T14:24:23;4.30;;;1.50;;
75059;SDS011;63640;59.264;18.116;2023-11-21T14:26:49;5.18;;;1.52;;
75059;SDS011;63640;59.264;18.116;2023-11-21T14:29:15;5.25;;;1.55;;
75059;SDS011;63640;59.264;18.116;2023-11-21T14:31:45;6.47;;;2.17;;
75059;SDS011;63640;59.264;18.116;2023-11-21T14:34:10;4.45;;;1.73;;
75059;SDS011;63640;59.264;18.116;2023-11-21T14:36:37;4.57;;;1.95;;
75059;SDS011;63640;59.264;18.116;2023-11-21T14:39:04;5.43;;;1.83;;
75059;SDS011;63640;59.264;18.116;2023-11-21T14:41:46;8.10;;;2.10;;
75059;SDS011;63640;59.264;18.116;2023-11-21T14:44:11;4.43;;;1.67;;
75059;SDS011;63640;59.264;18.116;2023-11-21T14:46:38;5.07;;;1.83;;
75059;SDS011;63640;59.264;18.116;2023-11-21T14:49:05;4.72;;;1.67;;
75059;SDS011;63640;59.264;18.116;2023-11-21T14:51:52;5.82;;;1.98;;